sensor_id;sensor_type;location;lat;lon;timestamp;P1;durP1;ratioP1;P2;durP2;ratioP2
37049;SDS011;22958;51.232;6.826;2023-12-20T00:01:46;18.73;;;6.13;;
37049;SDS011;22958;51.232;6.826;2023-12-20T00:04:11;25.43;;;7.10;;
37049;SDS011;22958;51.232;6.826;2023-12-20T00:06:37;20.40;;;6.57;;
37049;SDS011;22958;51.232;6.826;2023-12-20T00:09:02;17.87;;;6.80;;
37049;SDS011;22958;51.232;6.826;2023-12-20T00:11:28;22.73;;;8.80;;
37049;SDS011;22958;51.232;6.826;2023-12-20T00:13:53;25.07;;;7.67;;
37049;SDS011;22958;51.232;6.826;2023-12-20T00:16:19;23.03;;;7.87;;
37049;SDS011;22958;51.232;6.826;2023-12-20T00:18:44;18.53;;;7.23;;
37049;SDS011;22958;51.232;6.826;2023-12-20T00:21:10;19.57;;;8.03;;
37049;SDS011;22958;51.232;6.826;2023-12-20T00:23:35;20.17;;;6.67;;
37049;SDS011;22958;51.232;6.826;2023-12-20T00:26:01;22.83;;;8.50;;
37049;SDS011;22958;51.232;6.826;2023-12-20T00:28:26;14.33;;;6.50;;
37049;SDS011;22958;51.232;6.826;2023-12-20T00:30:52;15.10;;;6.67;;
37049;SDS011;22958;51.232;6.826;2023-12-20T00:33:17;19.30;;;6.73;;
37049;SDS011;22958;51.232;6.826;2023-12-20T00:35:44;20.08;;;7.50;;
37049;SDS011;22958;51.232;6.826;2023-12-20T00:38:09;24.80;;;7.73;;
37049;SDS011;22958;51.232;6.826;2023-12-20T00:40:36;20.17;;;7.50;;
37049;SDS011;22958;51.232;6.826;2023-12-20T00:43:01;20.80;;;7.80;;
37049;SDS011;22958;51.232;6.826;2023-12-20T00:45:27;22.03;;;8.30;;
37049;SDS011;22958;51.232;6.826;2023-12-20T00:47:52;24.47;;;8.40;;
37049;SDS011;22958;51.232;6.826;2023-12-20T00:50:18;24.93;;;9.17;;
37049;SDS011;22958;51.232;6.826;2023-12-20T00:52:44;28.77;;;8.17;;
37049;SDS011;22958;51.232;6.826;2023-12-20T00:55:09;26.00;;;9.13;;
37049;SDS011;22958;51.232;6.826;2023-12-20T00:57:35;24.80;;;9.40;;
37049;SDS011;22958;51.232;6.826;2023-12-20T01:00:00;32.73;;;9.57;;
37049;SDS011;22958;51.232;6.826;2023-12-20T01:02:26;27.93;;;9.57;;
37049;SDS011;22958;51.232;6.826;2023-12-20T01:04:52;27.37;;;10.77;;
37049;SDS011;22958;51.232;6.826;2023-12-20T01:07:17;29.73;;;11.63;;
37049;SDS011;22958;51.232;6.826;2023-12-20T01:09:43;34.77;;;11.97;;
37049;SDS011;22958;51.232;6.826;2023-12-20T01:12:08;36.27;;;12.63;;
37049;SDS011;22958;51.232;6.826;2023-12-20T01:14:34;30.60;;;12.87;;
37049;SDS011;22958;51.232;6.826;2023-12-20T01:16:59;37.30;;;15.20;;
37049;SDS011;22958;51.232;6.826;2023-12-20T01:19:26;42.85;;;16.83;;
37049;SDS011;22958;51.232;6.826;2023-12-20T01:21:53;46.90;;;17.92;;
37049;SDS011;22958;51.232;6.826;2023-12-20T01:24:18;34.77;;;18.60;;
37049;SDS011;22958;51.232;6.826;2023-12-20T01:26:44;45.20;;;18.43;;
37049;SDS011;22958;51.232;6.826;2023-12-20T01:29:09;44.80;;;22.97;;
37049;SDS011;22958;51.232;6.826;2023-12-20T01:31:35;50.77;;;22.93;;
37049;SDS011;22958;51.232;6.826;2023-12-20T01:34:00;58.87;;;23.23;;
37049;SDS011;22958;51.232;6.826;2023-12-20T01:36:26;50.07;;;22.83;;
37049;SDS011;22958;51.232;6.826;2023-12-20T01:38:52;53.63;;;23.67;;
37049;SDS011;22958;51.232;6.826;2023-12-20T01:41:17;52.83;;;24.60;;
37049;SDS011;22958;51.232;6.826;2023-12-20T01:43:43;49.40;;;24.07;;
37049;SDS011;22958;51.232;6.826;2023-12-20T01:46:08;48.50;;;21.90;;
37049;SDS011;22958;51.232;6.826;2023-12-20T01:48:34;42.65;;;20.60;;
37049;SDS011;22958;51.232;6.826;2023-12-20T01:51:00;44.28;;;20.02;;
37049;SDS011;22958;51.232;6.826;2023-12-20T01:53:27;42.72;;;18.63;;
37049;SDS011;22958;51.232;6.826;2023-12-20T01:55:54;40.10;;;16.15;;
37049;SDS011;22958;51.232;6.826;2023-12-20T01:58:22;45.90;;;17.73;;
37049;SDS011;22958;51.232;6.826;2023-12-20T02:00:48;45.13;;;18.70;;
37049;SDS011;22958;51.232;6.826;2023-12-20T02:03:15;44.03;;;16.75;;
37049;SDS011;22958;51.232;6.826;2023-12-20T02:05:41;41.30;;;16.63;;
37049;SDS011;22958;51.232;6.826;2023-12-20T02:08:07;33.70;;;16.57;;
37049;SDS011;22958;51.232;6.826;2023-12-20T02:10:32;48.77;;;16.67;;
37049;SDS011;22958;51.232;6.826;2023-12-20T02:12:59;47.28;;;15.63;;
37049;SDS011;22958;51.232;6.826;2023-12-20T02:15:24;45.87;;;14.43;;
37049;SDS011;22958;51.232;6.826;2023-12-20T02:17:50;44.17;;;15.20;;
37049;SDS011;22958;51.232;6.826;2023-12-20T02:20:15;41.03;;;14.30;;
37049;SDS011;22958;51.232;6.826;2023-12-20T02:22:41;42.13;;;15.63;;
37049;SDS011;22958;51.232;6.826;2023-12-20T02:25:07;40.97;;;15.97;;
37049;SDS011;22958;51.232;6.826;2023-12-20T02:27:32;46.17;;;15.93;;
37049;SDS011;22958;51.232;6.826;2023-12-20T02:32:25;36.47;;;14.68;;
37049;SDS011;22958;51.232;6.826;2023-12-20T02:34:51;40.65;;;15.15;;
37049;SDS011;22958;51.232;6.826;2023-12-20T02:37:17;42.90;;;13.40;;
37049;SDS011;22958;51.232;6.826;2023-12-20T02:39:42;41.97;;;12.73;;
37049;SDS011;22958;51.232;6.826;2023-12-20T02:42:08;43.00;;;13.60;;
37049;SDS011;22958;51.232;6.826;2023-12-20T02:44:33;38.03;;;12.90;;
37049;SDS011;22958;51.232;6.826;2023-12-20T02:47:00;36.40;;;11.30;;
37049;SDS011;22958;51.232;6.826;2023-12-20T02:49:25;34.25;;;11.75;;
37049;SDS011;22958;51.232;6.826;2023-12-20T02:51:51;41.20;;;10.20;;
37049;SDS011;22958;51.232;6.826;2023-12-20T02:54:16;35.90;;;9.60;;
37049;SDS011;22958;51.232;6.826;2023-12-20T02:56:42;42.40;;;9.60;;
37049;SDS011;22958;51.232;6.826;2023-12-20T02:59:07;32.47;;;7.43;;
37049;SDS011;22958;51.232;6.826;2023-12-20T03:01:41;31.23;;;7.38;;
37049;SDS011;22958;51.232;6.826;2023-12-20T03:04:07;33.10;;;5.93;;
37049;SDS011;22958;51.232;6.826;2023-12-20T03:06:33;26.13;;;6.63;;
37049;SDS011;22958;51.232;6.826;2023-12-20T03:08:58;55.97;;;7.13;;
37049;SDS011;22958;51.232;6.826;2023-12-20T03:11:27;35.80;;;7.33;;
37049;SDS011;22958;51.232;6.826;2023-12-20T03:13:53;25.25;;;5.38;;
37049;SDS011;22958;51.232;6.826;2023-12-20T03:16:19;27.60;;;5.63;;
37049;SDS011;22958;51.232;6.826;2023-12-20T03:18:45;30.90;;;5.63;;
37049;SDS011;22958;51.232;6.826;2023-12-20T03:21:11;42.23;;;5.70;;
37049;SDS011;22958;51.232;6.826;2023-12-20T03:23:36;25.70;;;4.53;;
37049;SDS011;22958;51.232;6.826;2023-12-20T03:26:02;25.83;;;5.70;;
37049;SDS011;22958;51.232;6.826;2023-12-20T03:28:28;27.23;;;5.45;;
37049;SDS011;22958;51.232;6.826;2023-12-20T03:30:54;30.77;;;5.80;;
37049;SDS011;22958;51.232;6.826;2023-12-20T03:33:20;30.57;;;5.90;;
37049;SDS011;22958;51.232;6.826;2023-12-20T03:35:45;30.20;;;4.90;;
37049;SDS011;22958;51.232;6.826;2023-12-20T03:38:11;26.87;;;5.43;;
37049;SDS011;22958;51.232;6.826;2023-12-20T03:40:36;35.20;;;6.10;;
37049;SDS011;22958;51.232;6.826;2023-12-20T03:43:02;31.13;;;6.07;;
37049;SDS011;22958;51.232;6.826;2023-12-20T03:45:27;36.47;;;5.43;;
37049;SDS011;22958;51.232;6.826;2023-12-20T03:47:53;28.27;;;7.07;;
37049;SDS011;22958;51.232;6.826;2023-12-20T03:50:20;32.65;;;5.40;;
37049;SDS011;22958;51.232;6.826;2023-12-20T03:52:49;25.27;;;6.13;;
37049;SDS011;22958;51.232;6.826;2023-12-20T03:55:15;23.93;;;5.10;;
37049;SDS011;22958;51.232;6.826;2023-12-20T03:57:40;28.33;;;4.97;;
37049;SDS011;22958;51.232;6.826;2023-12-20T04:00:09;23.27;;;5.33;;
37049;SDS011;22958;51.232;6.826;2023-12-20T04:02:38;27.40;;;5.82;;
37049;SDS011;22958;51.232;6.826;2023-12-20T04:05:05;39.72;;;6.03;;
37049;SDS011;22958;51.232;6.826;2023-12-20T04:07:31;23.30;;;4.95;;
37049;SDS011;22958;51.232;6.826;2023-12-20T04:09:56;33.20;;;7.80;;
37049;SDS011;22958;51.232;6.826;2023-12-20T04:12:22;25.83;;;5.83;;
37049;SDS011;22958;51.232;6.826;2023-12-20T04:14:47;29.93;;;5.93;;
37049;SDS011;22958;51.232;6.826;2023-12-20T04:17:13;30.63;;;5.73;;
37049;SDS011;22958;51.232;6.826;2023-12-20T04:19:40;31.05;;;5.80;;
37049;SDS011;22958;51.232;6.826;2023-12-20T04:22:06;29.80;;;5.83;;
37049;SDS011;22958;51.232;6.826;2023-12-20T04:24:32;34.07;;;6.50;;
37049;SDS011;22958;51.232;6.826;2023-12-20T04:26:57;34.97;;;6.47;;
37049;SDS011;22958;51.232;6.826;2023-12-20T04:29:23;45.73;;;7.23;;
37049;SDS011;22958;51.232;6.826;2023-12-20T04:31:48;61.10;;;8.13;;
37049;SDS011;22958;51.232;6.826;2023-12-20T04:34:16;39.58;;;6.85;;
37049;SDS011;22958;51.232;6.826;2023-12-20T04:36:42;34.03;;;6.70;;
37049;SDS011;22958;51.232;6.826;2023-12-20T04:39:07;28.97;;;6.97;;
37049;SDS011;22958;51.232;6.826;2023-12-20T04:41:33;31.27;;;7.30;;
37049;SDS011;22958;51.232;6.826;2023-12-20T04:43:58;41.00;;;7.50;;
37049;SDS011;22958;51.232;6.826;2023-12-20T04:46:25;28.85;;;8.70;;
37049;SDS011;22958;51.232;6.826;2023-12-20T04:48:51;26.97;;;6.47;;
37049;SDS011;22958;51.232;6.826;2023-12-20T04:51:16;37.67;;;8.20;;
37049;SDS011;22958;51.232;6.826;2023-12-20T04:53:42;33.13;;;7.30;;
37049;SDS011;22958;51.232;6.826;2023-12-20T04:56:07;34.93;;;7.50;;
37049;SDS011;22958;51.232;6.826;2023-12-20T04:58:33;44.97;;;7.43;;
37049;SDS011;22958;51.232;6.826;2023-12-20T05:00:58;52.23;;;8.10;;
37049;SDS011;22958;51.232;6.826;2023-12-20T05:03:24;34.60;;;7.70;;
37049;SDS011;22958;51.232;6.826;2023-12-20T05:05:50;38.63;;;9.07;;
37049;SDS011;22958;51.232;6.826;2023-12-20T05:08:15;47.07;;;7.93;;
37049;SDS011;22958;51.232;6.826;2023-12-20T05:10:41;36.13;;;7.17;;
37049;SDS011;22958;51.232;6.826;2023-12-20T05:13:06;43.57;;;8.10;;
37049;SDS011;22958;51.232;6.826;2023-12-20T05:15:32;36.17;;;8.02;;
37049;SDS011;22958;51.232;6.826;2023-12-20T05:17:58;33.03;;;7.70;;
37049;SDS011;22958;51.232;6.826;2023-12-20T05:20:23;31.33;;;7.63;;
37049;SDS011;22958;51.232;6.826;2023-12-20T05:22:49;40.53;;;7.07;;
37049;SDS011;22958;51.232;6.826;2023-12-20T05:25:15;39.47;;;8.37;;
37049;SDS011;22958;51.232;6.826;2023-12-20T05:27:40;34.80;;;8.90;;
37049;SDS011;22958;51.232;6.826;2023-12-20T05:30:06;32.30;;;7.27;;
37049;SDS011;22958;51.232;6.826;2023-12-20T05:32:32;41.85;;;7.80;;
37049;SDS011;22958;51.232;6.826;2023-12-20T05:34:57;39.53;;;8.13;;
37049;SDS011;22958;51.232;6.826;2023-12-20T05:37:23;37.57;;;8.43;;
37049;SDS011;22958;51.232;6.826;2023-12-20T05:39:48;44.23;;;8.27;;
37049;SDS011;22958;51.232;6.826;2023-12-20T05:42:14;38.28;;;7.70;;
37049;SDS011;22958;51.232;6.826;2023-12-20T05:44:40;44.80;;;7.83;;
37049;SDS011;22958;51.232;6.826;2023-12-20T05:47:05;45.87;;;8.37;;
37049;SDS011;22958;51.232;6.826;2023-12-20T05:49:30;40.53;;;8.40;;
37049;SDS011;22958;51.232;6.826;2023-12-20T05:51:56;34.43;;;7.87;;
37049;SDS011;22958;51.232;6.826;2023-12-20T05:54:22;35.20;;;7.40;;
37049;SDS011;22958;51.232;6.826;2023-12-20T05:56:48;42.53;;;7.85;;
37049;SDS011;22958;51.232;6.826;2023-12-20T05:59:13;45.90;;;8.30;;
37049;SDS011;22958;51.232;6.826;2023-12-20T06:01:39;30.67;;;7.03;;
37049;SDS011;22958;51.232;6.826;2023-12-20T06:04:04;30.63;;;7.73;;
37049;SDS011;22958;51.232;6.826;2023-12-20T06:06:30;51.83;;;7.37;;
37049;SDS011;22958;51.232;6.826;2023-12-20T06:08:55;37.43;;;8.70;;
37049;SDS011;22958;51.232;6.826;2023-12-20T06:11:21;47.93;;;8.53;;
37049;SDS011;22958;51.232;6.826;2023-12-20T06:13:47;32.53;;;7.10;;
37049;SDS011;22958;51.232;6.826;2023-12-20T06:16:14;31.13;;;7.28;;
37049;SDS011;22958;51.232;6.826;2023-12-20T06:18:39;42.00;;;8.07;;
37049;SDS011;22958;51.232;6.826;2023-12-20T06:21:05;36.63;;;7.20;;
37049;SDS011;22958;51.232;6.826;2023-12-20T06:25:57;37.72;;;9.23;;
37049;SDS011;22958;51.232;6.826;2023-12-20T06:28:23;46.27;;;7.93;;
37049;SDS011;22958;51.232;6.826;2023-12-20T06:30:48;31.03;;;8.07;;
37049;SDS011;22958;51.232;6.826;2023-12-20T06:33:14;32.10;;;7.72;;
37049;SDS011;22958;51.232;6.826;2023-12-20T06:35:40;46.83;;;8.47;;
37049;SDS011;22958;51.232;6.826;2023-12-20T06:38:06;38.70;;;8.77;;
37049;SDS011;22958;51.232;6.826;2023-12-20T06:40:31;34.47;;;7.70;;
37049;SDS011;22958;51.232;6.826;2023-12-20T06:42:57;37.80;;;7.87;;
37049;SDS011;22958;51.232;6.826;2023-12-20T06:45:22;32.30;;;8.27;;
37049;SDS011;22958;51.232;6.826;2023-12-20T06:47:48;38.23;;;7.77;;
37049;SDS011;22958;51.232;6.826;2023-12-20T06:50:13;43.67;;;8.87;;
37049;SDS011;22958;51.232;6.826;2023-12-20T06:52:39;36.53;;;7.73;;
37049;SDS011;22958;51.232;6.826;2023-12-20T06:55:05;32.40;;;7.83;;
37049;SDS011;22958;51.232;6.826;2023-12-20T06:57:30;48.57;;;9.03;;
37049;SDS011;22958;51.232;6.826;2023-12-20T06:59:56;36.53;;;8.83;;
37049;SDS011;22958;51.232;6.826;2023-12-20T07:02:22;39.30;;;7.57;;
37049;SDS011;22958;51.232;6.826;2023-12-20T07:04:48;27.47;;;6.57;;
37049;SDS011;22958;51.232;6.826;2023-12-20T07:07:14;33.77;;;8.33;;
37049;SDS011;22958;51.232;6.826;2023-12-20T07:09:39;27.27;;;7.27;;
37049;SDS011;22958;51.232;6.826;2023-12-20T07:12:07;31.70;;;7.30;;
37049;SDS011;22958;51.232;6.826;2023-12-20T07:14:33;31.80;;;7.23;;
37049;SDS011;22958;51.232;6.826;2023-12-20T07:16:59;37.20;;;7.13;;
37049;SDS011;22958;51.232;6.826;2023-12-20T07:19:24;25.93;;;7.13;;
37049;SDS011;22958;51.232;6.826;2023-12-20T07:21:50;33.30;;;7.17;;
37049;SDS011;22958;51.232;6.826;2023-12-20T07:24:15;28.80;;;6.00;;
37049;SDS011;22958;51.232;6.826;2023-12-20T07:26:41;27.93;;;5.97;;
37049;SDS011;22958;51.232;6.826;2023-12-20T07:29:06;26.70;;;6.70;;
37049;SDS011;22958;51.232;6.826;2023-12-20T07:31:32;39.73;;;7.73;;
37049;SDS011;22958;51.232;6.826;2023-12-20T07:33:57;35.03;;;7.70;;
37049;SDS011;22958;51.232;6.826;2023-12-20T07:36:23;41.23;;;7.23;;
37049;SDS011;22958;51.232;6.826;2023-12-20T07:38:48;30.70;;;7.20;;
37049;SDS011;22958;51.232;6.826;2023-12-20T07:41:14;40.70;;;6.50;;
37049;SDS011;22958;51.232;6.826;2023-12-20T07:43:41;33.50;;;6.50;;
37049;SDS011;22958;51.232;6.826;2023-12-20T07:46:07;30.47;;;6.90;;
37049;SDS011;22958;51.232;6.826;2023-12-20T07:51:02;32.22;;;6.90;;
37049;SDS011;22958;51.232;6.826;2023-12-20T07:53:28;35.78;;;6.47;;
37049;SDS011;22958;51.232;6.826;2023-12-20T07:55:55;30.70;;;7.87;;
37049;SDS011;22958;51.232;6.826;2023-12-20T07:58:20;37.40;;;7.18;;
37049;SDS011;22958;51.232;6.826;2023-12-20T08:00:46;31.45;;;7.47;;
37049;SDS011;22958;51.232;6.826;2023-12-20T08:03:12;46.63;;;8.10;;
37049;SDS011;22958;51.232;6.826;2023-12-20T08:05:38;25.40;;;6.87;;
37049;SDS011;22958;51.232;6.826;2023-12-20T08:08:05;48.13;;;7.97;;
37049;SDS011;22958;51.232;6.826;2023-12-20T08:10:31;35.75;;;8.23;;
37049;SDS011;22958;51.232;6.826;2023-12-20T08:12:57;33.63;;;8.47;;
37049;SDS011;22958;51.232;6.826;2023-12-20T08:15:22;45.70;;;7.73;;
37049;SDS011;22958;51.232;6.826;2023-12-20T08:17:48;42.10;;;7.27;;
37049;SDS011;22958;51.232;6.826;2023-12-20T08:20:15;46.33;;;7.97;;
37049;SDS011;22958;51.232;6.826;2023-12-20T08:22:41;32.93;;;6.77;;
37049;SDS011;22958;51.232;6.826;2023-12-20T08:25:07;32.57;;;6.90;;
37049;SDS011;22958;51.232;6.826;2023-12-20T08:27:33;37.65;;;6.95;;
37049;SDS011;22958;51.232;6.826;2023-12-20T08:30:02;32.85;;;7.22;;
37049;SDS011;22958;51.232;6.826;2023-12-20T08:32:27;30.07;;;6.20;;
37049;SDS011;22958;51.232;6.826;2023-12-20T08:34:53;32.67;;;6.33;;
37049;SDS011;22958;51.232;6.826;2023-12-20T08:37:18;32.77;;;7.23;;
37049;SDS011;22958;51.232;6.826;2023-12-20T08:39:44;28.03;;;6.00;;
37049;SDS011;22958;51.232;6.826;2023-12-20T08:42:09;34.40;;;7.80;;
37049;SDS011;22958;51.232;6.826;2023-12-20T08:44:35;35.63;;;6.27;;
37049;SDS011;22958;51.232;6.826;2023-12-20T08:47:00;38.03;;;6.27;;
37049;SDS011;22958;51.232;6.826;2023-12-20T08:49:26;33.87;;;6.73;;
37049;SDS011;22958;51.232;6.826;2023-12-20T08:51:52;45.65;;;6.18;;
37049;SDS011;22958;51.232;6.826;2023-12-20T08:54:18;28.73;;;6.30;;
37049;SDS011;22958;51.232;6.826;2023-12-20T08:56:44;37.88;;;6.65;;
37049;SDS011;22958;51.232;6.826;2023-12-20T08:59:11;33.13;;;6.72;;
37049;SDS011;22958;51.232;6.826;2023-12-20T09:01:37;32.30;;;6.00;;
37049;SDS011;22958;51.232;6.826;2023-12-20T09:04:02;28.23;;;5.97;;
37049;SDS011;22958;51.232;6.826;2023-12-20T09:06:28;43.67;;;7.70;;
37049;SDS011;22958;51.232;6.826;2023-12-20T09:08:53;36.20;;;6.93;;
37049;SDS011;22958;51.232;6.826;2023-12-20T09:11:19;26.63;;;5.50;;
37049;SDS011;22958;51.232;6.826;2023-12-20T09:13:44;24.37;;;5.43;;
37049;SDS011;22958;51.232;6.826;2023-12-20T09:16:10;28.73;;;5.67;;
37049;SDS011;22958;51.232;6.826;2023-12-20T09:18:36;34.80;;;6.67;;
37049;SDS011;22958;51.232;6.826;2023-12-20T09:21:01;34.60;;;6.37;;
37049;SDS011;22958;51.232;6.826;2023-12-20T09:23:27;38.23;;;6.87;;
37049;SDS011;22958;51.232;6.826;2023-12-20T09:25:53;30.07;;;5.13;;
37049;SDS011;22958;51.232;6.826;2023-12-20T09:28:18;27.47;;;5.70;;
37049;SDS011;22958;51.232;6.826;2023-12-20T09:30:44;35.73;;;5.00;;
37049;SDS011;22958;51.232;6.826;2023-12-20T09:33:11;37.17;;;5.85;;
37049;SDS011;22958;51.232;6.826;2023-12-20T09:35:37;24.30;;;5.38;;
37049;SDS011;22958;51.232;6.826;2023-12-20T09:38:03;35.65;;;5.50;;
37049;SDS011;22958;51.232;6.826;2023-12-20T09:40:29;33.77;;;5.87;;
37049;SDS011;22958;51.232;6.826;2023-12-20T09:42:58;26.50;;;6.57;;
37049;SDS011;22958;51.232;6.826;2023-12-20T09:45:35;31.88;;;4.72;;
37049;SDS011;22958;51.232;6.826;2023-12-20T09:48:02;35.95;;;5.47;;
37049;SDS011;22958;51.232;6.826;2023-12-20T09:50:30;31.60;;;5.22;;
37049;SDS011;22958;51.232;6.826;2023-12-20T09:52:57;39.25;;;6.45;;
37049;SDS011;22958;51.232;6.826;2023-12-20T09:55:25;28.98;;;5.47;;
37049;SDS011;22958;51.232;6.826;2023-12-20T09:57:52;27.95;;;5.28;;
37049;SDS011;22958;51.232;6.826;2023-12-20T10:00:18;36.22;;;5.53;;
37049;SDS011;22958;51.232;6.826;2023-12-20T10:02:57;32.53;;;5.30;;
37049;SDS011;22958;51.232;6.826;2023-12-20T10:05:31;35.80;;;5.47;;
37049;SDS011;22958;51.232;6.826;2023-12-20T10:07:57;40.50;;;5.85;;
37049;SDS011;22958;51.232;6.826;2023-12-20T10:10:24;30.88;;;5.65;;
37049;SDS011;22958;51.232;6.826;2023-12-20T10:13:06;24.45;;;5.15;;
37049;SDS011;22958;51.232;6.826;2023-12-20T10:15:33;37.97;;;6.32;;
37049;SDS011;22958;51.232;6.826;2023-12-20T10:18:00;28.60;;;5.25;;
37049;SDS011;22958;51.232;6.826;2023-12-20T10:20:26;27.90;;;5.43;;
37049;SDS011;22958;51.232;6.826;2023-12-20T10:22:54;23.40;;;4.68;;
37049;SDS011;22958;51.232;6.826;2023-12-20T10:25:23;35.40;;;5.60;;
37049;SDS011;22958;51.232;6.826;2023-12-20T10:27:50;28.85;;;5.63;;
37049;SDS011;22958;51.232;6.826;2023-12-20T10:30:33;37.35;;;5.65;;
37049;SDS011;22958;51.232;6.826;2023-12-20T10:32:58;36.17;;;6.00;;
37049;SDS011;22958;51.232;6.826;2023-12-20T10:35:24;33.73;;;4.50;;
37049;SDS011;22958;51.232;6.826;2023-12-20T10:37:49;41.83;;;6.17;;
37049;SDS011;22958;51.232;6.826;2023-12-20T10:40:19;26.45;;;5.10;;
37049;SDS011;22958;51.232;6.826;2023-12-20T10:42:45;42.13;;;5.57;;
37049;SDS011;22958;51.232;6.826;2023-12-20T10:45:11;32.13;;;4.70;;
37049;SDS011;22958;51.232;6.826;2023-12-20T10:47:36;32.87;;;6.73;;
37049;SDS011;22958;51.232;6.826;2023-12-20T10:50:05;29.80;;;5.10;;
37049;SDS011;22958;51.232;6.826;2023-12-20T10:52:31;40.75;;;6.15;;
37049;SDS011;22958;51.232;6.826;2023-12-20T10:54:59;47.75;;;5.20;;
37049;SDS011;22958;51.232;6.826;2023-12-20T10:57:25;29.27;;;4.53;;
37049;SDS011;22958;51.232;6.826;2023-12-20T11:02:18;44.63;;;6.30;;
37049;SDS011;22958;51.232;6.826;2023-12-20T11:04:46;30.47;;;5.10;;
37049;SDS011;22958;51.232;6.826;2023-12-20T11:07:35;30.00;;;5.85;;
37049;SDS011;22958;51.232;6.826;2023-12-20T11:12:54;29.90;;;5.38;;
37049;SDS011;22958;51.232;6.826;2023-12-20T11:15:27;33.00;;;4.75;;
37049;SDS011;22958;51.232;6.826;2023-12-20T11:17:57;29.25;;;4.40;;
37049;SDS011;22958;51.232;6.826;2023-12-20T11:20:24;37.67;;;5.53;;
37049;SDS011;22958;51.232;6.826;2023-12-20T11:22:59;26.83;;;5.07;;
37049;SDS011;22958;51.232;6.826;2023-12-20T11:25:25;22.87;;;4.90;;
37049;SDS011;22958;51.232;6.826;2023-12-20T11:28:08;28.33;;;5.72;;
37049;SDS011;22958;51.232;6.826;2023-12-20T11:30:41;31.25;;;6.03;;
37049;SDS011;22958;51.232;6.826;2023-12-20T11:33:15;34.80;;;5.40;;
37049;SDS011;22958;51.232;6.826;2023-12-20T11:35:41;35.13;;;5.18;;
37049;SDS011;22958;51.232;6.826;2023-12-20T11:38:08;31.38;;;5.25;;
37049;SDS011;22958;51.232;6.826;2023-12-20T11:40:35;28.63;;;4.68;;
37049;SDS011;22958;51.232;6.826;2023-12-20T11:43:02;26.98;;;4.95;;
37049;SDS011;22958;51.232;6.826;2023-12-20T11:45:28;29.05;;;4.85;;
37049;SDS011;22958;51.232;6.826;2023-12-20T11:47:54;21.67;;;4.53;;
37049;SDS011;22958;51.232;6.826;2023-12-20T11:52:47;29.70;;;5.07;;
37049;SDS011;22958;51.232;6.826;2023-12-20T11:55:14;38.08;;;6.18;;
37049;SDS011;22958;51.232;6.826;2023-12-20T11:57:41;44.17;;;6.07;;
37049;SDS011;22958;51.232;6.826;2023-12-20T12:00:08;25.55;;;4.32;;
37049;SDS011;22958;51.232;6.826;2023-12-20T12:02:33;20.83;;;4.27;;
37049;SDS011;22958;51.232;6.826;2023-12-20T12:04:59;25.60;;;5.87;;
37049;SDS011;22958;51.232;6.826;2023-12-20T12:07:25;20.47;;;4.53;;
37049;SDS011;22958;51.232;6.826;2023-12-20T12:09:51;24.70;;;5.27;;
37049;SDS011;22958;51.232;6.826;2023-12-20T12:12:17;25.63;;;5.00;;
37049;SDS011;22958;51.232;6.826;2023-12-20T12:14:44;25.80;;;5.03;;
37049;SDS011;22958;51.232;6.826;2023-12-20T12:17:13;35.83;;;5.72;;
37049;SDS011;22958;51.232;6.826;2023-12-20T12:19:40;45.55;;;6.38;;
37049;SDS011;22958;51.232;6.826;2023-12-20T12:22:10;28.02;;;6.72;;
37049;SDS011;22958;51.232;6.826;2023-12-20T12:24:40;28.40;;;5.00;;
37049;SDS011;22958;51.232;6.826;2023-12-20T12:27:07;28.52;;;5.55;;
37049;SDS011;22958;51.232;6.826;2023-12-20T12:29:33;31.38;;;5.10;;
37049;SDS011;22958;51.232;6.826;2023-12-20T12:31:59;26.50;;;5.72;;
37049;SDS011;22958;51.232;6.826;2023-12-20T12:34:28;37.60;;;6.07;;
37049;SDS011;22958;51.232;6.826;2023-12-20T12:36:53;36.53;;;7.60;;
37049;SDS011;22958;51.232;6.826;2023-12-20T12:39:19;29.37;;;5.03;;
37049;SDS011;22958;51.232;6.826;2023-12-20T12:41:45;33.47;;;4.83;;
37049;SDS011;22958;51.232;6.826;2023-12-20T12:44:10;26.97;;;5.43;;
37049;SDS011;22958;51.232;6.826;2023-12-20T12:46:36;32.13;;;5.10;;
37049;SDS011;22958;51.232;6.826;2023-12-20T12:49:02;31.17;;;5.13;;
37049;SDS011;22958;51.232;6.826;2023-12-20T12:51:27;27.43;;;5.37;;
37049;SDS011;22958;51.232;6.826;2023-12-20T12:53:53;33.50;;;6.50;;
37049;SDS011;22958;51.232;6.826;2023-12-20T12:56:18;33.83;;;5.80;;
37049;SDS011;22958;51.232;6.826;2023-12-20T12:58:44;26.43;;;4.87;;
37049;SDS011;22958;51.232;6.826;2023-12-20T13:01:10;32.72;;;5.63;;
37049;SDS011;22958;51.232;6.826;2023-12-20T13:03:36;39.47;;;6.40;;
37049;SDS011;22958;51.232;6.826;2023-12-20T13:06:01;27.93;;;5.87;;
37049;SDS011;22958;51.232;6.826;2023-12-20T13:08:28;27.83;;;6.80;;
37049;SDS011;22958;51.232;6.826;2023-12-20T13:10:54;32.65;;;7.22;;
37049;SDS011;22958;51.232;6.826;2023-12-20T13:13:20;34.60;;;7.32;;
37049;SDS011;22958;51.232;6.826;2023-12-20T13:15:46;44.57;;;7.47;;
37049;SDS011;22958;51.232;6.826;2023-12-20T13:18:16;31.15;;;6.93;;
37049;SDS011;22958;51.232;6.826;2023-12-20T13:20:43;34.47;;;7.60;;
37049;SDS011;22958;51.232;6.826;2023-12-20T13:23:09;32.27;;;8.07;;
37049;SDS011;22958;51.232;6.826;2023-12-20T13:25:35;42.53;;;7.67;;
37049;SDS011;22958;51.232;6.826;2023-12-20T13:28:00;34.03;;;9.63;;
37049;SDS011;22958;51.232;6.826;2023-12-20T13:30:27;41.22;;;7.95;;
37049;SDS011;22958;51.232;6.826;2023-12-20T13:32:53;38.57;;;8.47;;
37049;SDS011;22958;51.232;6.826;2023-12-20T13:35:18;29.57;;;7.73;;
37049;SDS011;22958;51.232;6.826;2023-12-20T13:37:45;32.47;;;8.30;;
37049;SDS011;22958;51.232;6.826;2023-12-20T13:40:11;46.10;;;8.63;;
37049;SDS011;22958;51.232;6.826;2023-12-20T13:42:37;34.17;;;8.38;;
37049;SDS011;22958;51.232;6.826;2023-12-20T13:45:03;39.13;;;8.48;;
37049;SDS011;22958;51.232;6.826;2023-12-20T13:47:30;28.13;;;9.10;;
37049;SDS011;22958;51.232;6.826;2023-12-20T13:49:56;28.95;;;8.30;;
37049;SDS011;22958;51.232;6.826;2023-12-20T13:52:21;34.27;;;9.40;;
37049;SDS011;22958;51.232;6.826;2023-12-20T13:54:47;31.40;;;9.03;;
37049;SDS011;22958;51.232;6.826;2023-12-20T13:57:13;32.70;;;7.77;;
37049;SDS011;22958;51.232;6.826;2023-12-20T13:59:38;39.53;;;9.93;;
37049;SDS011;22958;51.232;6.826;2023-12-20T14:02:04;32.30;;;9.00;;
37049;SDS011;22958;51.232;6.826;2023-12-20T14:04:30;30.70;;;8.52;;
37049;SDS011;22958;51.232;6.826;2023-12-20T14:06:56;33.60;;;8.52;;
37049;SDS011;22958;51.232;6.826;2023-12-20T14:09:22;39.75;;;8.23;;
37049;SDS011;22958;51.232;6.826;2023-12-20T14:11:47;28.23;;;7.70;;
37049;SDS011;22958;51.232;6.826;2023-12-20T14:14:13;32.10;;;8.47;;
37049;SDS011;22958;51.232;6.826;2023-12-20T14:16:38;34.40;;;8.40;;
37049;SDS011;22958;51.232;6.826;2023-12-20T14:19:04;27.23;;;7.10;;
37049;SDS011;22958;51.232;6.826;2023-12-20T14:21:32;30.35;;;7.35;;
37049;SDS011;22958;51.232;6.826;2023-12-20T14:23:58;34.78;;;7.13;;
37049;SDS011;22958;51.232;6.826;2023-12-20T14:26:24;25.70;;;6.17;;
37049;SDS011;22958;51.232;6.826;2023-12-20T14:28:49;26.57;;;6.77;;
37049;SDS011;22958;51.232;6.826;2023-12-20T14:31:15;30.10;;;6.73;;
37049;SDS011;22958;51.232;6.826;2023-12-20T14:33:40;23.23;;;7.17;;
37049;SDS011;22958;51.232;6.826;2023-12-20T14:36:07;36.13;;;6.95;;
37049;SDS011;22958;51.232;6.826;2023-12-20T14:38:33;42.63;;;7.05;;
37049;SDS011;22958;51.232;6.826;2023-12-20T14:40:58;17.90;;;6.23;;
37049;SDS011;22958;51.232;6.826;2023-12-20T14:43:24;39.73;;;7.30;;